Time;durP1;ratioP1;P1;durP2;ratioP2;P2;SDS_P1;SDS_P2;PMS_P1;PMS_P2;Temp;Humidity;BMP_temperature;BMP_pressure;BME280_temperature;BME280_humidity;BME280_pressure;Samples;Min_cycle;Max_cycle;Signal;HPM_P1;HPM_P2
2023/02/14 00:00:40;;;;;;;2.05;1.50;;;19.60;50.50;;;;;;5019276;28;20137;-67
2023/02/14 00:03:06;;;;;;;1.88;1.10;;;19.60;50.40;;;;;;5023043;28;20113;-67
2023/02/14 00:05:31;;;;;;;2.42;1.48;;;19.60;50.40;;;;;;5021755;28;20137;-68
2023/02/14 00:07:57;;;;;;;1.98;1.30;;;19.50;50.40;;;;;;5027380;28;20491;-67
2023/02/14 00:10:22;;;;;;;1.50;1.10;;;19.60;50.40;;;;;;5024328;28;20029;-67
2023/02/14 00:12:48;;;;;;;2.10;1.40;;;19.60;50.40;;;;;;5023159;28;20053;-67
2023/02/14 00:15:23;;;;;;;2.55;1.30;;;19.50;50.40;;;;;;5022347;28;20057;-67
2023/02/14 00:17:51;;;;;;;1.92;1.20;;;19.50;50.40;;;;;;5018644;28;20370;-67
2023/02/14 00:20:17;;;;;;;2.45;1.30;;;19.50;50.30;;;;;;5023862;28;20029;-67
2023/02/14 00:22:43;;;;;;;2.22;1.30;;;19.50;50.40;;;;;;5016728;28;20437;-67
2023/02/14 00:25:09;;;;;;;2.28;1.40;;;19.50;50.40;;;;;;5023405;28;20169;-68
2023/02/14 00:27:35;;;;;;;2.10;1.40;;;19.50;50.30;;;;;;5021335;28;20017;-67
2023/02/14 00:30:02;;;;;;;2.10;1.35;;;19.50;50.30;;;;;;5018937;28;20030;-67
2023/02/14 00:32:29;;;;;;;1.55;1.10;;;19.50;50.30;;;;;;5021428;28;20026;-67
2023/02/14 00:34:54;;;;;;;2.05;1.42;;;19.50;50.40;;;;;;5021370;28;20399;-68
2023/02/14 00:37:20;;;;;;;1.70;1.20;;;19.50;50.30;;;;;;5021070;28;20026;-68
2023/02/14 00:39:46;;;;;;;2.17;1.40;;;19.50;50.30;;;;;;5018429;28;20489;-67
2023/02/14 00:42:12;;;;;;;2.08;1.30;;;19.50;50.30;;;;;;5021333;28;20022;-68
2023/02/14 00:44:38;;;;;;;2.38;1.20;;;19.50;50.40;;;;;;5020823;28;20473;-67
2023/02/14 00:47:04;;;;;;;2.50;1.40;;;19.50;50.30;;;;;;5022208;28;20033;-67
2023/02/14 00:49:29;;;;;;;2.47;1.40;;;19.40;50.30;;;;;;5020600;28;20040;-67
2023/02/14 00:51:55;;;;;;;2.50;1.50;;;19.50;50.30;;;;;;5022795;28;20026;-68
2023/02/14 00:54:21;;;;;;;1.90;1.10;;;19.50;50.30;;;;;;5019836;28;20461;-68
2023/02/14 00:56:46;;;;;;;1.80;1.17;;;19.40;50.30;;;;;;5022091;28;20040;-67
2023/02/14 00:59:12;;;;;;;2.22;1.40;;;19.50;50.30;;;;;;5036698;28;20033;-67
2023/02/14 01:01:38;;;;;;;2.65;1.30;;;19.50;50.30;;;;;;5020514;28;20101;-67
2023/02/14 01:04:04;;;;;;;1.67;1.20;;;19.40;50.20;;;;;;5021882;28;20129;-67
2023/02/14 01:06:30;;;;;;;1.63;1.20;;;19.50;50.80;;;;;;5021671;28;20022;-67
2023/02/14 01:08:56;;;;;;;2.22;1.40;;;19.40;50.20;;;;;;5021548;28;20385;-68
2023/02/14 01:11:23;;;;;;;2.10;1.33;;;19.40;50.20;;;;;;5025898;28;20586;-67
2023/02/14 01:13:50;;;;;;;2.00;1.38;;;19.40;50.30;;;;;;5029589;28;20032;-67
2023/02/14 01:16:18;;;;;;;2.85;1.40;;;19.40;50.20;;;;;;5022432;28;20030;-67
2023/02/14 01:18:44;;;;;;;2.05;1.38;;;19.40;50.30;;;;;;5020470;28;20037;-67
2023/02/14 01:21:29;;;;;;;1.73;1.13;;;19.40;50.30;;;;;;5037811;28;20439;-68
2023/02/14 01:23:57;;;;;;;1.70;1.20;;;19.40;50.30;;;;;;5017218;28;20037;-67
2023/02/14 01:26:23;;;;;;;1.63;1.20;;;19.40;50.70;;;;;;5020500;28;20473;-67
2023/02/14 01:28:49;;;;;;;2.08;1.30;;;19.40;50.20;;;;;;5022175;28;20033;-67
2023/02/14 01:31:21;;;;;;;1.33;1.05;;;19.40;50.30;;;;;;5020736;28;20033;-67
2023/02/14 01:33:48;;;;;;;1.65;1.10;;;19.40;50.30;;;;;;5019270;28;20052;-67
2023/02/14 01:36:24;;;;;;;1.85;1.40;;;19.40;50.30;;;;;;5020713;28;20481;-67
2023/02/14 01:38:55;;;;;;;1.92;1.20;;;19.40;50.30;;;;;;5017170;28;20034;-67
2023/02/14 01:41:22;;;;;;;1.85;1.25;;;19.40;50.20;;;;;;5021890;28;20108;-66
2023/02/14 01:44:13;;;;;;;1.38;1.10;;;19.40;50.20;;;;;;5023578;28;20401;-66
2023/02/14 01:46:40;;;;;;;1.88;1.30;;;19.40;50.20;;;;;;5022402;28;20026;-67
2023/02/14 01:49:17;;;;;;;2.13;1.20;;;19.40;50.20;;;;;;5018411;28;20478;-66
2023/02/14 01:51:50;;;;;;;2.17;1.38;;;19.40;50.20;;;;;;5019114;28;20030;-67
2023/02/14 01:54:17;;;;;;;1.50;1.20;;;19.40;50.70;;;;;;5020603;28;20037;-67
2023/02/14 01:56:47;;;;;;;1.80;1.00;;;19.30;50.20;;;;;;5019846;28;20035;-67
2023/02/14 01:59:17;;;;;;;1.70;1.08;;;19.30;50.20;;;;;;5020857;28;20461;-67
2023/02/14 02:01:44;;;;;;;1.80;1.10;;;19.30;50.20;;;;;;5022124;28;20253;-67
2023/02/14 02:04:22;;;;;;;1.92;1.33;;;19.30;50.20;;;;;;5019077;28;20025;-67
2023/02/14 02:06:53;;;;;;;1.65;1.20;;;19.30;50.20;;;;;;5018603;28;20365;-68
2023/02/14 02:09:52;;;;;;;2.30;1.20;;;19.30;50.20;;;;;;5020541;28;20018;-68
2023/02/14 02:12:18;;;;;;;1.70;1.10;;;19.30;50.20;;;;;;5020156;28;20036;-67
2023/02/14 02:14:44;;;;;;;2.03;1.30;;;19.30;50.20;;;;;;5017905;28;20116;-67
2023/02/14 02:17:27;;;;;;;1.85;1.20;;;19.30;50.20;;;;;;5019970;28;20433;-67
2023/02/14 02:20:02;;;;;;;1.63;1.30;;;19.30;50.20;;;;;;5018111;28;20397;-67
2023/02/14 02:22:55;;;;;;;2.28;1.20;;;19.30;50.20;;;;;;5019495;28;20481;-67
2023/02/14 02:25:41;;;;;;;1.83;1.30;;;19.30;50.20;;;;;;5020960;28;20032;-67
2023/02/14 02:28:55;;;;;;;1.60;1.17;;;19.30;50.20;;;;;;5018369;28;20026;-67
2023/02/14 02:31:45;;;;;;;1.83;1.20;;;19.30;50.20;;;;;;4981784;28;20043;-67
2023/02/14 02:34:10;;;;;;;1.13;0.98;;;19.30;50.20;;;;;;5020439;28;20026;-67
2023/02/14 02:36:45;;;;;;;1.92;1.15;;;19.30;50.20;;;;;;5020017;28;20427;-68
2023/02/14 02:39:19;;;;;;;2.20;1.45;;;19.30;50.20;;;;;;5020504;28;20036;-67
2023/02/14 02:41:55;;;;;;;1.95;1.10;;;19.20;50.10;;;;;;5020481;28;20033;-67
2023/02/14 02:44:32;;;;;;;1.65;1.15;;;19.30;50.20;;;;;;5018141;28;20071;-67
2023/02/14 02:47:13;;;;;;;1.85;1.10;;;19.20;50.20;;;;;;5019806;28;20029;-66
2023/02/14 02:53:02;;;;;;;1.45;1.02;;;19.20;50.10;;;;;;5019429;28;20075;-66
2023/02/14 02:56:54;;;;;;;1.70;1.20;;;19.20;50.20;;;;;;5018669;28;20037;-67
2023/02/14 02:59:03;;;;;;;2.13;1.20;;;19.20;50.20;;;;;;5005585;28;20456;-67
2023/02/14 03:01:36;;;;;;;1.50;1.08;;;19.20;50.20;;;;;;5018946;28;20104;-67
2023/02/14 03:06:51;;;;;;;1.80;1.10;;;19.20;50.20;;;;;;5019601;28;20048;-67
2023/02/14 03:09:20;;;;;;;2.08;1.25;;;19.20;50.20;;;;;;5016819;28;20038;-66
2023/02/14 03:12:14;;;;;;;1.47;1.00;;;19.20;50.20;;;;;;5020515;28;20033;-66
2023/02/14 03:14:45;;;;;;;1.48;1.10;;;19.20;50.70;;;;;;5019845;28;20022;-67
2023/02/14 03:17:17;;;;;;;1.90;1.30;;;19.20;50.30;;;;;;5019594;28;20469;-66
2023/02/14 03:20:20;;;;;;;1.75;1.10;;;19.20;50.30;;;;;;5019003;28;20115;-66
2023/02/14 03:22:52;;;;;;;1.63;1.13;;;19.20;50.30;;;;;;4999270;28;20581;-67
2023/02/14 03:25:27;;;;;;;1.65;1.10;;;19.20;50.30;;;;;;5020074;28;20049;-67
2023/02/14 03:28:11;;;;;;;1.58;1.20;;;19.10;50.30;;;;;;5020975;28;20071;-66
2023/02/14 03:31:01;;;;;;;1.70;1.17;;;19.10;50.30;;;;;;5021404;28;20036;-67
2023/02/14 03:33:43;;;;;;;1.50;1.10;;;19.10;50.30;;;;;;5022467;28;20037;-67
2023/02/14 03:36:30;;;;;;;1.80;1.30;;;19.10;50.30;;;;;;5020429;28;20021;-67
2023/02/14 03:39:09;;;;;;;2.10;1.30;;;19.10;50.30;;;;;;5025041;28;20370;-68
2023/02/14 03:41:45;;;;;;;1.60;1.10;;;19.10;50.30;;;;;;5021955;28;20026;-67
2023/02/14 03:44:12;;;;;;;1.58;1.08;;;19.10;50.40;;;;;;5022265;28;20026;-66
2023/02/14 03:46:41;;;;;;;1.30;1.00;;;19.10;50.40;;;;;;5020306;28;20592;-66
2023/02/14 03:49:12;;;;;;;1.40;1.02;;;19.10;50.40;;;;;;5023120;28;20064;-67
2023/02/14 03:51:39;;;;;;;1.40;1.10;;;19.10;50.30;;;;;;5023920;28;20087;-67
2023/02/14 03:54:09;;;;;;;1.50;1.00;;;19.10;50.40;;;;;;5019813;28;20018;-67
2023/02/14 03:56:45;;;;;;;2.35;1.52;;;19.10;50.40;;;;;;5023597;28;20018;-66
2023/02/14 03:59:16;;;;;;;1.02;0.90;;;19.10;50.50;;;;;;5023531;28;20105;-67
2023/02/14 04:01:46;;;;;;;1.63;1.05;;;19.00;50.40;;;;;;5022632;28;20030;-66
2023/02/14 04:04:13;;;;;;;;;;;19.00;50.40;;;;;;5021551;28;20053;-67
2023/02/14 04:06:39;;;;;;;1.52;1.10;;;19.00;50.50;;;;;;5021813;28;20363;-66
2023/02/14 04:09:05;;;;;;;2.35;1.25;;;19.10;50.50;;;;;;5018631;28;20121;-67
2023/02/14 04:11:33;;;;;;;1.67;1.17;;;19.00;50.50;;;;;;5022427;28;20072;-67
2023/02/14 04:14:00;;;;;;;1.90;1.30;;;19.00;50.50;;;;;;5021148;28;20030;-66
2023/02/14 04:16:25;;;;;;;1.60;1.10;;;19.00;50.50;;;;;;5021295;28;20132;-66
2023/02/14 04:21:35;;;;;;;1.63;1.15;;;19.00;50.50;;;;;;5022580;28;20041;-67
2023/02/14 04:24:00;;;;;;;1.50;1.00;;;19.00;50.50;;;;;;5022778;28;20029;-67
2023/02/14 04:26:26;;;;;;;1.85;1.10;;;19.00;50.50;;;;;;5022457;28;20132;-67
2023/02/14 04:28:52;;;;;;;1.98;1.27;;;19.00;50.50;;;;;;5018502;28;20029;-67
2023/02/14 04:31:17;;;;;;;1.48;1.02;;;19.00;50.60;;;;;;5023209;28;20071;-67
2023/02/14 04:33:44;;;;;;;1.80;1.20;;;19.00;50.60;;;;;;5021364;28;20034;-67
2023/02/14 04:36:10;;;;;;;1.45;1.00;;;19.00;50.60;;;;;;5023226;28;20399;-67
2023/02/14 04:38:36;;;;;;;1.20;1.02;;;19.00;50.60;;;;;;5021562;28;20049;-67
2023/02/14 04:41:02;;;;;;;2.05;1.30;;;19.00;50.60;;;;;;5019868;28;20033;-66
2023/02/14 04:43:27;;;;;;;1.73;1.20;;;19.00;50.60;;;;;;5021927;28;20419;-67
2023/02/14 04:45:53;;;;;;;1.60;1.10;;;19.00;50.60;;;;;;5022548;28;20433;-66
2023/02/14 04:48:19;;;;;;;1.42;1.08;;;19.00;50.60;;;;;;5023935;28;20033;-68
2023/02/14 04:50:49;;;;;;;1.80;1.20;;;19.00;50.60;;;;;;5020294;28;20034;-68
2023/02/14 04:53:14;;;;;;;1.30;0.98;;;19.00;50.60;;;;;;5020033;28;20044;-68
2023/02/14 04:55:40;;;;;;;1.52;1.10;;;19.00;50.60;;;;;;5022056;28;20022;-68
2023/02/14 04:58:06;;;;;;;1.33;1.02;;;19.00;50.60;;;;;;5021359;28;20021;-67
2023/02/14 05:00:31;;;;;;;1.45;1.00;;;19.00;50.50;;;;;;5022223;28;20077;-67
2023/02/14 05:02:57;;;;;;;1.23;0.93;;;19.00;50.50;;;;;;5025022;28;20061;-67
2023/02/14 05:05:22;;;;;;;1.30;0.93;;;19.00;50.50;;;;;;5021364;28;20029;-67
2023/02/14 05:07:48;;;;;;;1.60;1.10;;;19.00;50.50;;;;;;5020915;28;20034;-67
2023/02/14 05:10:14;;;;;;;1.17;0.90;;;19.00;50.50;;;;;;5019388;28;20496;-67
2023/02/14 05:12:39;;;;;;;1.17;1.00;;;19.00;50.50;;;;;;5020045;28;20115;-67
2023/02/14 05:15:05;;;;;;;1.40;1.00;;;19.00;50.60;;;;;;5020764;28;20093;-67
2023/02/14 05:17:31;;;;;;;1.60;1.10;;;19.00;50.60;;;;;;5019527;28;20029;-67
2023/02/14 05:19:56;;;;;;;1.13;0.90;;;19.10;50.70;;;;;;5022026;28;20115;-67
2023/02/14 05:22:22;;;;;;;1.65;1.00;;;19.10;50.70;;;;;;5022001;28;20401;-67
2023/02/14 05:24:48;;;;;;;1.83;1.15;;;19.00;50.70;;;;;;5019722;28;20091;-67
2023/02/14 05:27:14;;;;;;;1.42;1.00;;;19.00;50.70;;;;;;5021825;28;20118;-67
2023/02/14 05:29:39;;;;;;;1.92;1.00;;;19.00;50.70;;;;;;5021563;28;20076;-67
2023/02/14 05:32:05;;;;;;;1.60;1.10;;;19.00;50.80;;;;;;5021841;28;20503;-67
2023/02/14 05:34:30;;;;;;;1.67;1.00;;;19.00;50.80;;;;;;5018654;28;20029;-67
2023/02/14 05:36:56;;;;;;;1.65;1.00;;;19.00;50.80;;;;;;5022493;28;20909;-68
2023/02/14 05:39:22;;;;;;;1.38;1.00;;;19.10;50.90;;;;;;5019936;28;20101;-68
2023/02/14 05:41:47;;;;;;;1.42;1.00;;;19.10;51.40;;;;;;5019861;28;20034;-67
2023/02/14 05:44:13;;;;;;;1.63;1.15;;;19.10;50.90;;;;;;5018227;28;20544;-68
2023/02/14 05:46:38;;;;;;;1.40;1.05;;;19.10;50.90;;;;;;5018131;28;20075;-67
2023/02/14 05:49:04;;;;;;;1.40;1.00;;;19.10;50.90;;;;;;5019945;28;20026;-67
2023/02/14 05:51:30;;;;;;;1.40;1.00;;;19.10;50.90;;;;;;5021171;28;20443;-67
2023/02/14 05:53:58;;;;;;;1.75;1.20;;;19.10;51.00;;;;;;5019639;28;20030;-67
2023/02/14 05:56:24;;;;;;;2.10;1.13;;;19.10;51.00;;;;;;5020725;28;20033;-67
2023/02/14 05:58:49;;;;;;;1.65;1.10;;;19.10;51.00;;;;;;5019965;28;20041;-67
2023/02/14 06:01:15;;;;;;;1.58;1.10;;;19.10;51.00;;;;;;5021127;28;20611;-67
2023/02/14 06:03:41;;;;;;;1.75;1.13;;;19.10;51.00;;;;;;5018748;28;20032;-68
2023/02/14 06:06:06;;;;;;;1.50;1.00;;;19.10;51.00;;;;;;5020418;28;20489;-69
2023/02/14 06:08:32;;;;;;;1.77;1.10;;;19.10;51.10;;;;;;5018316;28;20105;-68
2023/02/14 06:10:57;;;;;;;1.58;1.10;;;19.10;51.10;;;;;;5020510;28;20025;-68
2023/02/14 06:13:23;;;;;;;1.42;1.00;;;19.10;51.10;;;;;;5019820;28;20405;-68
2023/02/14 06:15:49;;;;;;;1.42;1.10;;;19.10;51.10;;;;;;5020367;28;20030;-68
2023/02/14 06:18:15;;;;;;;1.60;0.90;;;19.10;51.10;;;;;;5020033;28;20029;-68
2023/02/14 06:20:40;;;;;;;1.88;1.20;;;19.10;51.10;;;;;;5036120;28;20037;-68
2023/02/14 06:23:06;;;;;;;2.00;1.10;;;19.10;51.10;;;;;;5019398;28;20465;-69
2023/02/14 06:25:31;;;;;;;1.90;1.10;;;19.10;51.10;;;;;;5022751;28;20057;-68
2023/02/14 06:27:58;;;;;;;1.63;1.08;;;19.10;51.10;;;;;;5014708;28;20480;-68
2023/02/14 06:30:24;;;;;;;1.45;1.00;;;19.10;51.10;;;;;;5015526;28;20025;-68
2023/02/14 06:32:49;;;;;;;1.55;1.00;;;19.10;51.10;;;;;;5019286;28;20047;-68
2023/02/14 06:35:15;;;;;;;1.42;1.02;;;19.10;51.10;;;;;;5019575;28;20116;-68
2023/02/14 06:37:41;;;;;;;2.25;1.10;;;19.10;51.00;;;;;;5020991;28;20080;-68
2023/02/14 06:40:08;;;;;;;1.95;1.20;;;19.10;51.00;;;;;;5027468;28;20049;-69
2023/02/14 06:42:34;;;;;;;1.38;1.00;;;19.10;51.00;;;;;;5013388;28;20034;-68
2023/02/14 06:45:01;;;;;;;1.67;1.10;;;19.10;51.00;;;;;;5019621;28;20034;-68
2023/02/14 06:47:27;;;;;;;2.17;1.20;;;19.10;51.00;;;;;;5017470;28;20433;-68
2023/02/14 06:49:52;;;;;;;1.15;0.90;;;19.10;51.00;;;;;;5019166;28;20113;-69
2023/02/14 06:52:18;;;;;;;1.70;1.10;;;19.10;51.00;;;;;;5019722;28;20025;-68
2023/02/14 06:54:43;;;;;;;2.05;1.10;;;19.10;51.00;;;;;;5019793;28;20366;-68
2023/02/14 06:57:09;;;;;;;2.20;0.90;;;19.10;51.00;;;;;;5019369;28;20061;-68
2023/02/14 06:59:35;;;;;;;1.50;1.00;;;19.10;51.00;;;;;;5017198;28;20029;-68
2023/02/14 07:02:01;;;;;;;2.05;1.13;;;19.10;51.00;;;;;;5014781;28;20500;-68
2023/02/14 07:04:26;;;;;;;1.60;1.00;;;19.10;51.00;;;;;;5019693;28;20033;-68
2023/02/14 07:06:52;;;;;;;1.63;1.00;;;19.10;51.00;;;;;;5018559;28;20450;-68
2023/02/14 07:09:18;;;;;;;1.25;0.90;;;19.10;50.90;;;;;;5020238;28;20030;-68
2023/02/14 07:11:44;;;;;;;2.00;1.02;;;19.10;50.90;;;;;;5024281;28;20041;-68
2023/02/14 07:14:10;;;;;;;1.75;1.00;;;19.10;50.90;;;;;;5021338;28;20124;-68
2023/02/14 07:16:36;;;;;;;1.58;1.17;;;19.10;50.90;;;;;;5019422;28;20030;-68
2023/02/14 07:19:02;;;;;;;2.00;1.00;;;19.10;50.90;;;;;;5018812;28;20038;-68
2023/02/14 07:21:27;;;;;;;2.03;0.98;;;19.10;50.90;;;;;;5014107;28;20338;-68
2023/02/14 07:23:53;;;;;;;3.40;1.00;;;19.10;50.90;;;;;;5019003;28;20030;-69
2023/02/14 07:26:18;;;;;;;1.48;0.90;;;19.10;50.80;;;;;;5019186;28;20045;-68
2023/02/14 07:28:45;;;;;;;1.48;1.00;;;19.10;50.80;;;;;;5018885;28;20105;-68
2023/02/14 07:31:11;;;;;;;1.48;0.90;;;19.10;50.80;;;;;;5016372;28;20049;-69
2023/02/14 07:33:37;;;;;;;1.45;0.90;;;19.10;50.80;;;;;;5018317;28;20045;-68
2023/02/14 07:36:05;;;;;;;1.55;0.93;;;19.10;50.80;;;;;;5019811;28;20124;-68
2023/02/14 07:38:30;;;;;;;1.20;1.00;;;19.10;50.80;;;;;;5019570;28;20037;-68
2023/02/14 07:40:56;;;;;;;1.30;0.90;;;19.10;50.80;;;;;;5019481;28;20531;-68
2023/02/14 07:43:21;;;;;;;1.60;1.02;;;19.10;50.80;;;;;;5017178;28;20069;-68
2023/02/14 07:45:47;;;;;;;1.42;1.10;;;19.10;50.70;;;;;;5017074;28;20050;-68
2023/02/14 07:48:13;;;;;;;1.60;0.90;;;19.10;50.70;;;;;;5021889;28;20025;-69
2023/02/14 07:50:38;;;;;;;1.30;0.93;;;19.10;50.70;;;;;;5021137;28;20039;-68
2023/02/14 07:53:04;;;;;;;2.47;1.00;;;19.10;50.70;;;;;;5014886;28;20117;-68
2023/02/14 07:55:30;;;;;;;1.50;0.90;;;19.10;50.80;;;;;;5018398;28;20385;-68
2023/02/14 07:57:55;;;;;;;1.90;1.00;;;19.10;50.70;;;;;;5015872;28;20474;-68
2023/02/14 08:00:21;;;;;;;1.73;1.00;;;19.10;50.70;;;;;;5019143;28;20026;-68
2023/02/14 08:02:48;;;;;;;2.53;1.10;;;19.10;50.70;;;;;;5013216;28;20031;-68
2023/02/14 08:05:14;;;;;;;1.55;0.95;;;19.10;50.70;;;;;;5019544;28;20017;-68
2023/02/14 08:07:40;;;;;;;1.58;1.00;;;19.10;50.70;;;;;;5015630;28;20022;-68
2023/02/14 08:10:06;;;;;;;1.45;0.90;;;19.10;50.60;;;;;;5020743;28;20030;-68
2023/02/14 08:17:59;;;;;;;1.67;1.00;;;19.10;50.60;;;;;;5019700;28;20040;-68
2023/02/14 08:20:25;;;;;;;1.40;1.00;;;19.10;50.60;;;;;;5021366;28;20466;-68
2023/02/14 08:22:51;;;;;;;1.48;0.90;;;19.10;50.60;;;;;;5022731;28;20029;-68
2023/02/14 08:25:16;;;;;;;1.65;1.10;;;19.10;50.60;;;;;;5022811;28;20022;-67
2023/02/14 08:27:42;;;;;;;1.50;1.10;;;19.10;50.60;;;;;;5020917;28;20036;-68
2023/02/14 08:30:08;;;;;;;1.52;1.10;;;19.10;50.60;;;;;;5021328;28;20065;-69
2023/02/14 08:32:33;;;;;;;1.65;1.10;;;19.10;50.60;;;;;;5022499;28;20033;-68
2023/02/14 08:34:59;;;;;;;1.33;1.00;;;19.10;50.60;;;;;;5021750;28;20377;-67
2023/02/14 08:37:25;;;;;;;1.30;1.00;;;19.10;50.60;;;;;;5017594;28;20033;-68
2023/02/14 08:39:50;;;;;;;1.00;0.80;;;19.10;50.60;;;;;;5022158;28;20544;-68
2023/02/14 08:42:16;;;;;;;1.20;0.90;;;19.10;50.60;;;;;;5021285;28;20109;-68
2023/02/14 08:44:41;;;;;;;1.33;0.90;;;19.10;50.60;;;;;;5021601;28;20030;-67
2023/02/14 08:47:07;;;;;;;0.95;0.80;;;19.10;50.60;;;;;;5018603;28;20477;-68
2023/02/14 08:49:32;;;;;;;1.73;1.20;;;19.10;50.60;;;;;;5020383;28;20072;-68
2023/02/14 08:51:58;;;;;;;1.50;1.00;;;19.10;50.50;;;;;;5023846;28;20030;-67
2023/02/14 08:54:24;;;;;;;1.67;0.90;;;19.10;50.50;;;;;;5021418;28;20436;-68
2023/02/14 08:56:49;;;;;;;1.40;0.90;;;19.10;50.40;;;;;;5035253;28;20036;-68
2023/02/14 08:59:15;;;;;;;1.17;0.90;;;19.10;50.40;;;;;;5018164;28;20017;-68
2023/02/14 09:01:40;;;;;;;0.85;0.70;;;19.10;50.40;;;;;;5020583;28;20500;-68
2023/02/14 09:04:06;;;;;;;1.13;0.90;;;19.10;50.40;;;;;;5022262;28;20086;-68
2023/02/14 09:06:32;;;;;;;1.92;0.85;;;19.10;50.50;;;;;;5020624;28;20034;-68
2023/02/14 09:08:57;;;;;;;1.10;0.80;;;19.10;50.50;;;;;;5023421;28;20342;-68
2023/02/14 09:11:24;;;;;;;0.90;0.77;;;19.10;50.50;;;;;;5023052;28;20030;-68
2023/02/14 09:13:52;;;;;;;1.00;0.80;;;19.10;50.50;;;;;;5022903;28;20434;-68
2023/02/14 09:16:19;;;;;;;1.40;0.90;;;19.10;50.50;;;;;;5022783;28;20026;-68
2023/02/14 09:18:46;;;;;;;1.30;0.90;;;19.10;50.40;;;;;;5021664;28;20496;-68
2023/02/14 09:21:17;;;;;;;1.17;0.90;;;19.10;50.50;;;;;;5022004;28;20516;-68
2023/02/14 09:23:44;;;;;;;1.95;0.90;;;19.10;50.50;;;;;;5020696;28;20421;-68
2023/02/14 09:26:11;;;;;;;1.20;0.90;;;19.10;50.50;;;;;;5020522;28;20385;-67
2023/02/14 09:28:38;;;;;;;1.20;0.82;;;19.10;50.50;;;;;;5029289;28;20538;-68
2023/02/14 09:31:11;;;;;;;1.10;0.90;;;19.10;50.40;;;;;;5023511;28;20072;-68
2023/02/14 09:33:37;;;;;;;1.60;1.00;;;19.10;50.50;;;;;;5023594;28;20068;-68
2023/02/14 09:38:47;;;;;;;1.35;0.80;;;19.10;50.50;;;;;;5019654;28;20041;-68
2023/02/14 09:41:28;;;;;;;1.00;0.82;;;19.10;50.40;;;;;;5021773;28;20029;-68
2023/02/14 09:44:02;;;;;;;1.20;0.80;;;19.10;50.40;;;;;;5018076;28;20032;-67
2023/02/14 09:46:29;;;;;;;1.10;0.80;;;19.10;50.40;;;;;;5022631;28;20091;-68
2023/02/14 09:48:57;;;;;;;2.28;0.90;;;19.10;50.30;;;;;;5020393;28;20073;-68
2023/02/14 09:51:26;;;;;;;0.93;0.80;;;19.10;50.30;;;;;;5020449;28;20032;-68
2023/02/14 09:54:00;;;;;;;1.13;0.93;;;19.10;50.30;;;;;;5022665;28;20043;-68
2023/02/14 09:56:41;;;;;;;1.00;0.90;;;19.10;50.30;;;;;;5022532;28;20030;-68
2023/02/14 09:59:15;;;;;;;1.10;1.00;;;19.10;50.30;;;;;;5018346;28;20056;-68
2023/02/14 10:02:14;;;;;;;1.52;0.90;;;19.10;50.30;;;;;;5018940;28;20022;-68
2023/02/14 10:04:51;;;;;;;0.80;0.80;;;19.10;50.30;;;;;;5008175;28;20030;-68
2023/02/14 10:07:17;;;;;;;1.23;0.85;;;19.10;50.30;;;;;;5020618;28;20440;-68
2023/02/14 10:10:04;;;;;;;0.90;0.70;;;19.10;50.30;;;;;;5021290;28;20022;-68
2023/02/14 10:12:44;;;;;;;1.60;0.90;;;19.10;50.30;;;;;;5020793;28;20068;-69
2023/02/14 10:15:19;;;;;;;1.23;0.90;;;19.10;50.30;;;;;;5018098;28;20484;-68
2023/02/14 10:17:55;;;;;;;1.05;0.90;;;19.10;50.30;;;;;;5016513;28;20121;-67
2023/02/14 10:20:42;;;;;;;1.08;0.82;;;19.10;50.30;;;;;;5019882;28;20465;-67
2023/02/14 10:23:33;;;;;;;1.40;0.82;;;19.10;50.40;;;;;;5019056;28;20030;-68
2023/02/14 10:26:09;;;;;;;0.75;0.70;;;19.10;50.30;;;;;;5013854;28;20438;-68
2023/02/14 10:28:47;;;;;;;1.33;0.95;;;19.10;50.30;;;;;;5019431;28;20472;-68
2023/02/14 10:31:19;;;;;;;1.00;0.80;;;19.10;50.30;;;;;;5020936;28;20107;-68
2023/02/14 10:33:52;;;;;;;0.85;0.80;;;19.10;50.30;;;;;;5015005;28;20045;-68
2023/02/14 10:36:47;;;;;;;1.23;0.80;;;19.10;50.30;;;;;;5016869;28;20061;-68
2023/02/14 10:39:33;;;;;;;1.50;0.90;;;19.10;50.80;;;;;;5020745;28;20033;-68
2023/02/14 10:42:05;;;;;;;1.00;0.80;;;19.10;50.30;;;;;;5020308;28;20042;-68
2023/02/14 10:45:09;;;;;;;0.93;0.80;;;19.10;50.30;;;;;;5019233;28;20045;-68
2023/02/14 10:47:57;;;;;;;1.77;1.00;;;19.10;50.30;;;;;;5015077;28;20043;-68
2023/02/14 10:50:25;;;;;;;1.50;0.90;;;19.10;50.30;;;;;;5020672;28;20060;-68
2023/02/14 10:53:04;;;;;;;1.13;0.80;;;19.10;50.30;;;;;;5019379;28;20022;-68
2023/02/14 10:55:52;;;;;;;1.10;0.90;;;19.10;50.40;;;;;;5021090;28;20461;-68
2023/02/14 10:58:21;;;;;;;1.00;0.85;;;19.10;50.30;;;;;;5016393;28;20113;-68
2023/02/14 11:01:10;;;;;;;1.60;0.93;;;19.10;50.30;;;;;;5018110;28;20120;-68
2023/02/14 11:03:39;;;;;;;1.10;0.90;;;19.10;50.30;;;;;;5018606;28;20030;-68
2023/02/14 11:06:05;;;;;;;0.90;0.80;;;19.10;50.30;;;;;;5016264;28;20121;-68
2023/02/14 11:08:35;;;;;;;1.00;0.80;;;19.10;50.30;;;;;;5019274;28;20396;-68
2023/02/14 11:11:10;;;;;;;1.48;0.90;;;19.10;50.30;;;;;;5017952;28;20121;-68
2023/02/14 11:13:38;;;;;;;0.93;0.82;;;19.10;50.40;;;;;;5016121;28;20030;-66
2023/02/14 11:16:09;;;;;;;0.70;0.65;;;19.10;50.40;;;;;;5017706;28;20560;-69
2023/02/14 11:18:38;;;;;;;1.08;0.85;;;19.10;50.30;;;;;;5020107;28;20033;-69
2023/02/14 11:21:09;;;;;;;0.93;0.80;;;19.10;50.40;;;;;;5019555;28;20052;-69
2023/02/14 11:23:38;;;;;;;1.45;0.80;;;19.10;50.40;;;;;;5018984;28;20047;-69
2023/02/14 11:26:29;;;;;;;0.85;0.80;;;19.10;50.40;;;;;;5019143;28;20033;-70
2023/02/14 11:29:01;;;;;;;1.08;0.80;;;19.10;50.30;;;;;;5018516;28;20488;-70
2023/02/14 11:31:31;;;;;;;0.80;0.80;;;19.10;50.30;;;;;;5016141;28;20029;-69
2023/02/14 11:33:57;;;;;;;1.00;0.73;;;19.10;50.40;;;;;;5016788;28;20022;-69
2023/02/14 11:36:23;;;;;;;0.82;0.70;;;19.10;50.30;;;;;;5015628;28;20057;-69
2023/02/14 11:39:04;;;;;;;0.88;0.70;;;19.10;50.30;;;;;;5019200;28;20076;-69
2023/02/14 11:41:46;;;;;;;1.13;0.90;;;19.10;50.20;;;;;;5016733;28;20021;-67
2023/02/14 11:44:21;;;;;;;0.90;0.77;;;19.10;50.20;;;;;;5018691;28;20072;-69
2023/02/14 11:46:49;;;;;;;1.10;0.80;;;19.10;50.20;;;;;;5022331;28;20026;-69
2023/02/14 11:49:34;;;;;;;1.13;0.90;;;19.10;50.20;;;;;;5021733;28;20049;-69
2023/02/14 11:52:14;;;;;;;0.90;0.80;;;19.10;50.10;;;;;;5017914;28;20022;-69
2023/02/14 11:54:41;;;;;;;1.00;0.90;;;19.10;50.10;;;;;;5017644;28;20038;-68
2023/02/14 11:57:27;;;;;;;0.88;0.80;;;19.10;50.20;;;;;;5019913;28;20080;-67
2023/02/14 11:59:54;;;;;;;0.88;0.77;;;19.10;50.20;;;;;;5024094;28;20061;-69
2023/02/14 12:02:43;;;;;;;1.20;0.80;;;19.10;50.20;;;;;;5023514;28;20030;-67
2023/02/14 12:05:23;;;;;;;0.70;0.70;;;19.10;50.20;;;;;;5019836;28;20018;-69
2023/02/14 12:07:58;;;;;;;1.48;0.90;;;19.10;50.20;;;;;;5021259;28;20026;-69
2023/02/14 12:10:30;;;;;;;1.40;0.80;;;19.10;50.20;;;;;;5022018;28;20037;-70
2023/02/14 12:12:58;;;;;;;1.58;1.00;;;19.10;50.20;;;;;;5020901;28;20033;-69
2023/02/14 12:15:43;;;;;;;1.15;0.77;;;19.10;50.20;;;;;;5022194;28;20067;-69
2023/02/14 12:18:39;;;;;;;1.10;0.80;;;19.10;50.20;;;;;;5021082;28;20370;-67
2023/02/14 12:21:59;;;;;;;1.00;0.90;;;19.10;50.20;;;;;;5023579;28;20102;-69
2023/02/14 12:24:52;;;;;;;2.03;0.88;;;19.10;50.20;;;;;;4998925;28;20046;-69
2023/02/14 12:27:39;;;;;;;2.20;1.00;;;19.10;50.20;;;;;;5021151;28;20034;-69
2023/02/14 12:30:17;;;;;;;2.20;0.90;;;19.10;50.20;;;;;;5021729;28;20054;-69
2023/02/14 12:32:49;;;;;;;1.40;1.00;;;19.10;50.20;;;;;;5022088;28;20033;-70
2023/02/14 12:35:21;;;;;;;1.20;0.85;;;19.10;50.30;;;;;;5022172;28;20029;-69
2023/02/14 12:38:08;;;;;;;1.60;0.93;;;19.10;50.30;;;;;;5020772;28;20040;-67
2023/02/14 12:40:48;;;;;;;2.15;1.08;;;19.10;50.30;;;;;;5019900;28;20064;-69
2023/02/14 12:43:39;;;;;;;1.85;1.10;;;19.10;50.30;;;;;;5021768;28;20032;-70
2023/02/14 12:46:29;;;;;;;1.85;1.00;;;19.10;50.30;;;;;;5025183;28;20042;-70
2023/02/14 12:49:13;;;;;;;1.58;0.90;;;19.10;50.30;;;;;;5020799;28;20119;-69
2023/02/14 12:51:49;;;;;;;1.85;1.00;;;19.10;50.30;;;;;;5021984;28;20527;-69
2023/02/14 12:54:52;;;;;;;1.48;1.00;;;19.10;50.30;;;;;;5018290;28;20044;-69
2023/02/14 12:57:28;;;;;;;2.00;1.05;;;19.10;50.30;;;;;;5020270;28;20493;-69
2023/02/14 13:00:16;;;;;;;1.63;1.10;;;19.10;50.30;;;;;;5018654;28;20042;-69
2023/02/14 13:02:59;;;;;;;2.50;1.20;;;19.10;50.30;;;;;;5019800;28;20451;-69
2023/02/14 13:05:41;;;;;;;2.45;0.98;;;19.10;50.30;;;;;;5022034;28;20029;-69
2023/02/14 13:08:28;;;;;;;2.22;1.10;;;19.10;50.30;;;;;;5023774;28;20029;-69
2023/02/14 13:11:14;;;;;;;2.78;1.35;;;19.00;50.30;;;;;;5020533;28;20382;-69
2023/02/14 13:14:03;;;;;;;2.40;1.10;;;19.10;50.40;;;;;;5021176;28;20056;-69
2023/02/14 13:16:50;;;;;;;1.52;1.00;;;19.10;50.40;;;;;;5021300;28;20021;-69
2023/02/14 13:19:42;;;;;;;2.47;1.15;;;19.10;50.40;;;;;;5021673;28;20468;-69
2023/02/14 13:22:15;;;;;;;1.95;1.10;;;19.10;50.50;;;;;;5018283;28;20117;-69
2023/02/14 13:24:50;;;;;;;1.65;1.00;;;19.10;50.50;;;;;;5022223;28;20017;-69
2023/02/14 13:27:24;;;;;;;1.98;1.10;;;19.10;50.50;;;;;;5021557;28;20026;-69